createdAt,value
2023-03-24T00:00:01.903Z,99615.44
2023-03-24T00:00:25.022Z,99624.22
2023-03-24T00:00:47.632Z,99611.78
2023-03-24T00:01:10.519Z,99619.59
2023-03-24T00:01:32.275Z,99617.63
2023-03-24T00:01:54.362Z,99617.78
2023-03-24T00:02:17.739Z,99619.47
2023-03-24T00:02:42.568Z,99622.28
2023-03-24T00:03:04.427Z,99614.25
2023-03-24T00:03:29.512Z,99616.06
2023-03-24T00:03:52.310Z,99619.19
2023-03-24T00:04:15.514Z,99613.72
2023-03-24T00:04:39.058Z,99603.22
2023-03-24T00:05:01.247Z,99612.69
2023-03-24T00:05:24.485Z,99577.38
2023-03-24T00:05:46.294Z,99600.16
2023-03-24T00:06:13.696Z,99616.63
2023-03-24T00:06:36.790Z,99619.53
2023-03-24T00:07:01.773Z,99605.03
2023-03-24T00:07:25.545Z,99530.97
2023-03-24T00:07:54.151Z,99608.13
2023-03-24T00:08:17.847Z,99539.59
2023-03-24T00:08:43.958Z,99565.88
2023-03-24T00:09:06.168Z,99611.03
2023-03-24T00:09:28.837Z,99611.56
2023-03-24T00:09:50.812Z,99604.94
2023-03-24T00:10:17.968Z,99610.91
2023-03-24T00:10:40.408Z,99605.53
2023-03-24T00:11:04.257Z,99600.16
2023-03-24T00:11:26.361Z,99612.25
2023-03-24T00:11:49.124Z,99606.25
2023-03-24T00:12:13.934Z,99600.16
2023-03-24T00:12:38.768Z,99602.84
2023-03-24T00:13:01.188Z,99589.53
2023-03-24T00:13:24.526Z,99600.78
2023-03-24T00:13:47.265Z,99592.31
2023-03-24T00:14:12.160Z,99595.66
2023-03-24T00:14:33.987Z,99598.94
2023-03-24T00:14:56.692Z,99588.69
2023-03-24T00:15:21.262Z,99598.84
2023-03-24T00:15:43.083Z,99599.91
2023-03-24T00:16:06.359Z,99593.59
2023-03-24T00:16:29.528Z,99598.00
2023-03-24T00:16:52.794Z,99588.22
2023-03-24T00:17:17.407Z,99595.06
2023-03-24T00:17:39.570Z,99588.75
2023-03-24T00:18:02.418Z,99586.91
2023-03-24T00:18:25.965Z,99589.47
2023-03-24T00:18:52.770Z,99582.75
2023-03-24T00:19:15.090Z,99587.78
2023-03-24T00:19:38.292Z,99589.94
2023-03-24T00:19:59.975Z,99586.16
2023-03-24T00:20:23.058Z,99584.44
2023-03-24T00:20:45.963Z,99585.66
2023-03-24T00:21:11.564Z,99579.22
2023-03-24T00:21:33.505Z,99588.84
2023-03-24T00:21:55.990Z,99588.13
2023-03-24T00:22:17.770Z,99585.66
2023-03-24T00:22:42.430Z,99579.06
2023-03-24T00:23:05.079Z,99579.56
2023-03-24T00:23:27.902Z,99580.28
2023-03-24T00:23:49.634Z,99577.28
2023-03-24T00:24:12.751Z,99577.28
2023-03-24T00:24:35.642Z,99580.28
2023-03-24T00:24:58.323Z,99581.91
2023-03-24T00:25:23.306Z,99574.94
2023-03-24T00:25:45.410Z,99578.22
2023-03-24T00:26:12.230Z,99580.19
2023-03-24T00:26:38.366Z,99580.69
2023-03-24T00:27:03.460Z,99581.56
2023-03-24T00:27:30.162Z,99574.25
2023-03-24T00:27:53.265Z,99570.59
2023-03-24T00:28:16.229Z,99578.63
2023-03-24T00:28:39.113Z,99570.38
2023-03-24T00:29:02.009Z,99562.34
2023-03-24T00:29:24.730Z,99572.72
2023-03-24T00:29:48.029Z,99569.28
2023-03-24T00:30:11.667Z,99572.41
2023-03-24T00:30:34.899Z,99572.31
2023-03-24T00:30:56.622Z,99568.66
2023-03-24T00:31:19.470Z,99560.63
2023-03-24T00:31:43.212Z,99562.44
2023-03-24T00:32:06.358Z,99561.34
2023-03-24T00:32:30.266Z,99569.97
2023-03-24T00:32:53.528Z,99552.53
2023-03-24T00:33:15.606Z,99549.00
2023-03-24T00:33:37.700Z,99536.81
2023-03-24T00:34:02.715Z,99557.28
2023-03-24T00:34:24.490Z,99554.09
2023-03-24T00:34:46.215Z,99546.41
2023-03-24T00:35:09.874Z,99564.38
2023-03-24T00:35:34.250Z,99548.28
2023-03-24T00:35:57.759Z,99554.06
2023-03-24T00:36:21.253Z,99550.41
2023-03-24T00:36:43.040Z,99553.09
2023-03-24T00:37:06.588Z,99558.66
2023-03-24T00:37:28.338Z,99561.47
2023-03-24T00:37:52.074Z,99550.88
2023-03-24T00:38:15.264Z,99548.44
2023-03-24T00:38:38.153Z,99541.81
2023-03-24T00:39:01.053Z,99545.84
2023-03-24T00:39:22.886Z,99560.63
2023-03-24T00:39:44.882Z,99554.50
2023-03-24T00:40:12.399Z,99556.34
2023-03-24T00:40:34.165Z,99555.09
2023-03-24T00:40:55.948Z,99563.66
2023-03-24T00:41:20.089Z,99549.75
2023-03-24T00:41:45.106Z,99553.50
2023-03-24T00:42:07.247Z,99553.13
2023-03-24T00:42:29.286Z,99561.03
2023-03-24T00:42:51.207Z,99554.81
2023-03-24T00:43:14.330Z,99553.59
2023-03-24T00:43:36.679Z,99557.28
2023-03-24T00:44:00.290Z,99552.63
2023-03-24T00:44:22.958Z,99549.09
2023-03-24T00:44:44.937Z,99549.09
2023-03-24T00:45:09.068Z,99554.47
2023-03-24T00:45:34.439Z,99551.78
2023-03-24T00:46:02.424Z,99548.88
2023-03-24T00:46:28.507Z,99556.47
2023-03-24T00:46:56.379Z,99555.63
2023-03-24T00:47:26.183Z,99557.31
2023-03-24T00:47:49.979Z,99555.47
2023-03-24T00:48:12.853Z,99539.22
2023-03-24T00:48:34.978Z,99553.56
2023-03-24T00:49:02.652Z,99553.31
2023-03-24T00:49:42.362Z,99560.63
2023-03-24T00:50:06.698Z,99541.72
2023-03-24T00:50:28.683Z,99546.72
2023-03-24T00:50:52.839Z,99545.84
2023-03-24T00:51:14.589Z,99547.06
2023-03-24T00:51:38.190Z,99550.34
2023-03-24T00:52:01.792Z,99546.72
2023-03-24T00:52:26.191Z,99542.31
2023-03-24T00:52:49.108Z,99542.81
2023-03-24T00:53:15.834Z,99542.94
2023-03-24T00:53:43.900Z,99547.31
2023-03-24T00:54:06.726Z,99545.00
2023-03-24T00:54:32.038Z,99540.94
2023-03-24T00:54:55.199Z,99546.81
2023-03-24T00:55:18.094Z,99528.50
2023-03-24T00:55:40.586Z,99544.66
2023-03-24T00:56:02.274Z,99548.28
2023-03-24T00:56:26.650Z,99547.22
2023-03-24T00:56:49.943Z,99542.72
2023-03-24T00:57:13.019Z,99540.66
2023-03-24T00:57:34.940Z,99525.13
2023-03-24T00:57:57.029Z,99519.66
2023-03-24T00:58:20.264Z,99533.22
2023-03-24T00:58:42.119Z,99528.97
2023-03-24T00:59:04.228Z,99532.34
2023-03-24T00:59:29.420Z,99533.06
2023-03-24T00:59:54.543Z,99539.19
2023-03-24T01:00:19.668Z,99526.00
2023-03-24T01:00:42.368Z,99538.59
2023-03-24T01:01:06.585Z,99539.44
2023-03-24T01:01:33.109Z,99530.66
2023-03-24T01:01:54.848Z,99532.16
2023-03-24T01:02:19.176Z,99519.31
2023-03-24T01:02:41.462Z,99520.78
2023-03-24T01:03:05.423Z,99529.81
2023-03-24T01:03:27.496Z,99534.31
2023-03-24T01:03:50.963Z,99537.47
2023-03-24T01:04:14.095Z,99537.47
2023-03-24T01:04:37.518Z,99540.75
2023-03-24T01:05:02.108Z,99530.91
2023-03-24T01:05:25.902Z,99526.50
2023-03-24T01:05:48.478Z,99520.41
2023-03-24T01:06:11.484Z,99534.19
2023-03-24T01:06:36.537Z,99531.50
2023-03-24T01:06:58.549Z,99527.00
2023-03-24T01:07:20.537Z,99530.66
2023-03-24T01:07:43.225Z,99524.09
2023-03-24T01:08:07.386Z,99528.47
2023-03-24T01:08:31.318Z,99526.66
2023-03-24T01:08:53.947Z,99524.47
2023-03-24T01:09:15.728Z,99524.97
2023-03-24T01:09:38.483Z,99533.13
2023-03-24T01:10:00.463Z,99532.88
2023-03-24T01:10:26.248Z,99526.78
2023-03-24T01:10:53.065Z,99529.56
2023-03-24T01:11:15.256Z,99524.06
2023-03-24T01:11:40.236Z,99528.81
2023-03-24T01:12:05.016Z,99536.59
2023-03-24T01:12:28.993Z,99527.72
2023-03-24T01:12:50.680Z,99529.28
2023-03-24T01:13:12.424Z,99511.41
2023-03-24T01:13:35.220Z,99515.47
2023-03-24T01:13:57.038Z,99527.94
2023-03-24T01:14:19.610Z,99531.13
2023-03-24T01:14:41.687Z,99526.50
2023-03-24T01:15:09.437Z,99533.31
2023-03-24T01:15:33.445Z,99521.63
2023-03-24T01:15:56.646Z,99516.78
2023-03-24T01:16:18.757Z,99527.00
2023-03-24T01:16:42.813Z,99522.84
2023-03-24T01:17:06.359Z,99529.56
2023-03-24T01:17:29.505Z,99522.38
2023-03-24T01:17:53.321Z,99527.84
2023-03-24T01:18:16.851Z,99534.59
2023-03-24T01:18:40.716Z,99523.34
2023-03-24T01:19:02.505Z,99528.16
2023-03-24T01:19:25.458Z,99525.22
2023-03-24T01:19:47.268Z,99526.06
2023-03-24T01:20:12.042Z,99525.47
2023-03-24T01:20:34.022Z,99528.25
2023-03-24T01:20:55.771Z,99528.47
2023-03-24T01:21:18.203Z,99524.31
2023-03-24T01:21:42.078Z,99518.66
2023-03-24T01:22:04.295Z,99519.91
2023-03-24T01:22:29.695Z,99515.97
2023-03-24T01:22:51.834Z,99519.44
2023-03-24T01:23:16.604Z,99521.50
2023-03-24T01:23:41.921Z,99516.25
2023-03-24T01:24:05.096Z,99516.97
2023-03-24T01:24:27.916Z,99528.16
2023-03-24T01:24:51.106Z,99515.13
2023-03-24T01:25:16.083Z,99519.41
2023-03-24T01:25:38.010Z,99524.63
2023-03-24T01:26:00.217Z,99521.84
2023-03-24T01:26:23.249Z,99526.00
2023-03-24T01:26:44.972Z,99526.75
2023-03-24T01:27:06.759Z,99524.91
2023-03-24T01:27:28.716Z,99515.66
2023-03-24T01:27:52.252Z,99518.47
2023-03-24T01:28:16.712Z,99510.31
2023-03-24T01:28:41.015Z,99523.94
2023-03-24T01:29:03.202Z,99518.25
2023-03-24T01:29:25.921Z,99516.63
2023-03-24T01:29:47.650Z,99514.91
2023-03-24T01:30:13.068Z,99519.91
2023-03-24T01:30:34.886Z,99516.88
2023-03-24T01:31:53.336Z,99498.19
2023-03-24T01:32:15.536Z,99506.38
2023-03-24T01:32:37.474Z,99512.59
2023-03-24T01:32:59.596Z,99512.84
2023-03-24T01:33:22.193Z,99514.66
2023-03-24T01:33:44.940Z,99515.63
2023-03-24T01:34:07.904Z,99500.34
2023-03-24T01:34:29.688Z,99517.06
2023-03-24T01:34:51.571Z,99512.44
2023-03-24T01:35:14.584Z,99511.72
2023-03-24T01:35:36.960Z,99496.16
2023-03-24T01:35:59.191Z,99487.16
2023-03-24T01:36:21.457Z,99501.69
2023-03-24T01:36:44.190Z,99499.75
2023-03-24T01:37:05.988Z,99497.06
2023-03-24T01:37:27.747Z,99511.56
2023-03-24T01:37:49.851Z,99504.28
2023-03-24T01:38:13.424Z,99503.78
2023-03-24T01:38:36.709Z,99498.41
2023-03-24T01:39:01.383Z,99500.84
2023-03-24T01:39:23.558Z,99496.72
2023-03-24T01:39:45.561Z,99487.94
2023-03-24T01:40:09.533Z,99492.59
2023-03-24T01:40:36.160Z,99499.69
2023-03-24T01:40:58.512Z,99495.03
2023-03-24T01:41:20.678Z,99487.34
2023-03-24T01:41:43.507Z,99500.50
2023-03-24T01:42:05.388Z,99495.84
2023-03-24T01:42:28.410Z,99492.09
2023-03-24T01:42:51.214Z,99493.16
2023-03-24T01:43:22.538Z,99487.69
2023-03-24T01:43:44.626Z,99485.28
2023-03-24T01:44:27.824Z,99488.22
2023-03-24T01:44:52.475Z,99490.88
2023-03-24T01:45:51.801Z,99485.78
2023-03-24T01:46:17.870Z,99484.66
2023-03-24T01:46:39.830Z,99496.59
2023-03-24T01:47:06.151Z,99489.63
2023-03-24T01:47:28.056Z,99485.78
2023-03-24T01:47:50.034Z,99478.34
2023-03-24T01:48:16.930Z,99487.00
2023-03-24T01:48:43.904Z,99485.03
2023-03-24T01:49:07.673Z,99476.81
2023-03-24T01:49:35.758Z,99480.75
2023-03-24T01:50:00.520Z,99484.41
2023-03-24T01:50:22.327Z,99472.53
2023-03-24T01:50:48.673Z,99477.22
2023-03-24T01:51:22.364Z,99474.06
2023-03-24T01:51:47.433Z,99475.78
2023-03-24T01:52:13.145Z,99475.66
2023-03-24T01:52:36.545Z,99474.81
2023-03-24T01:53:00.019Z,99474.69
2023-03-24T01:53:23.652Z,99463.59
2023-03-24T01:53:50.179Z,99473.69
2023-03-24T01:54:19.055Z,99473.38
2023-03-24T01:54:45.258Z,99469.84
2023-03-24T01:55:16.073Z,99473.69
2023-03-24T01:55:38.587Z,99463.13
2023-03-24T01:56:06.085Z,99478.75
2023-03-24T01:56:35.477Z,99472.38
2023-03-24T01:57:03.444Z,99467.66
2023-03-24T01:57:30.750Z,99459.22
2023-03-24T01:57:56.691Z,99467.16
2023-03-24T01:58:24.073Z,99453.38
2023-03-24T01:59:21.421Z,99461.91
2023-03-24T02:00:08.285Z,99456.19
2023-03-24T02:00:38.085Z,99458.50
2023-03-24T02:01:21.927Z,99453.25
2023-03-24T02:02:03.000Z,99451.19
2023-03-24T02:02:36.558Z,99452.16
2023-03-24T02:03:06.669Z,99438.75
2023-03-24T02:03:38.913Z,99449.25
2023-03-24T02:04:05.059Z,99443.25
2023-03-24T02:04:28.326Z,99437.63
2023-03-24T02:05:09.977Z,99441.69
2023-03-24T02:05:38.867Z,99436.19
2023-03-24T02:06:02.542Z,99431.81
2023-03-24T02:06:26.127Z,99427.63
2023-03-24T02:06:52.078Z,99432.03
2023-03-24T02:07:18.540Z,99431.38
2023-03-24T02:07:45.575Z,99427.75
2023-03-24T02:08:15.345Z,99430.94
2023-03-24T02:08:42.754Z,99420.09
2023-03-24T02:09:04.483Z,99429.50
2023-03-24T02:09:29.920Z,99422.13
2023-03-24T02:09:54.193Z,99418.78
2023-03-24T02:10:19.042Z,99426.06
2023-03-24T02:10:44.210Z,99421.81
2023-03-24T02:11:06.839Z,99396.81
2023-03-24T02:11:39.674Z,99408.63
2023-03-24T02:12:04.875Z,99423.13
2023-03-24T02:12:28.869Z,99425.72
2023-03-24T02:12:51.815Z,99422.06
2023-03-24T02:13:15.375Z,99413.06
2023-03-24T02:13:38.290Z,99420.75
2023-03-24T02:14:01.761Z,99419.03
2023-03-24T02:14:24.736Z,99412.31
2023-03-24T02:14:47.709Z,99400.84
2023-03-24T02:15:12.168Z,99411.34
2023-03-24T02:15:38.874Z,99414.53
2023-03-24T02:16:14.049Z,99400.75
2023-03-24T02:16:59.053Z,99399.50
2023-03-24T02:17:35.828Z,99399.75
2023-03-24T02:18:08.070Z,99406.22
2023-03-24T02:18:45.080Z,99397.19
2023-03-24T02:19:46.924Z,99389.03
2023-03-24T02:21:01.316Z,99406.13
2023-03-24T02:22:03.198Z,99385.75
2023-03-24T02:22:47.997Z,99397.59
2023-03-24T02:23:42.430Z,99401.75
2023-03-24T02:24:30.962Z,99397.34
2023-03-24T02:25:38.542Z,99397.59
2023-03-24T02:26:42.922Z,99399.75
2023-03-24T02:27:13.337Z,99380.03
2023-03-24T02:27:55.295Z,99382.69
2023-03-24T02:28:30.164Z,99382.53
2023-03-24T02:29:03.466Z,99384.00
2023-03-24T02:29:52.640Z,99380.38
2023-03-24T02:30:33.776Z,99368.78
2023-03-24T02:31:12.986Z,99383.06
2023-03-24T02:31:52.550Z,99387.94
2023-03-24T02:32:50.100Z,99385.91
2023-03-24T02:33:38.242Z,99388.78
2023-03-24T02:34:37.075Z,99380.38
2023-03-24T02:35:30.651Z,99390.03
2023-03-24T02:36:36.749Z,99365.03
2023-03-24T02:37:35.559Z,99384.31
2023-03-24T02:38:35.024Z,99384.66
2023-03-24T02:39:30.273Z,99385.88
2023-03-24T02:40:20.168Z,99377.97
2023-03-24T02:40:47.785Z,99385.91
2023-03-24T02:41:17.062Z,99370.25
2023-03-24T02:41:46.625Z,99386.72
2023-03-24T02:42:22.034Z,99359.50
2023-03-24T02:42:57.669Z,99384.91
2023-03-24T02:43:31.431Z,99379.91
2023-03-24T02:44:01.319Z,99380.25
2023-03-24T02:44:31.543Z,99376.97
2023-03-24T02:45:06.361Z,99382.94
2023-03-24T02:45:35.887Z,99386.34
2023-03-24T02:46:13.844Z,99373.19
2023-03-24T02:46:43.996Z,99378.19
2023-03-24T02:47:16.114Z,99385.13
2023-03-24T02:47:46.026Z,99377.31
2023-03-24T02:48:21.917Z,99378.69
2023-03-24T02:48:58.880Z,99376.38
2023-03-24T02:49:30.644Z,99380.28
2023-03-24T02:49:59.507Z,99382.25
2023-03-24T02:50:28.532Z,99376.75
2023-03-24T02:50:57.239Z,99381.25
2023-03-24T02:51:25.993Z,99378.47
2023-03-24T02:51:54.665Z,99383.72
2023-03-24T02:52:22.239Z,99373.81
2023-03-24T02:52:50.422Z,99382.75
2023-03-24T02:53:18.889Z,99393.94
2023-03-24T02:54:08.316Z,99395.88
2023-03-24T02:54:40.645Z,99392.22
2023-03-24T02:55:09.993Z,99394.66
2023-03-24T02:55:37.129Z,99378.31
2023-03-24T02:56:08.361Z,99390.28
2023-03-24T02:56:38.669Z,99382.59
2023-03-24T02:57:19.607Z,99390.56
2023-03-24T02:58:05.483Z,99392.53
2023-03-24T02:58:37.844Z,99391.31
2023-03-24T02:59:02.953Z,99393.88
2023-03-24T02:59:34.151Z,99369.97
2023-03-24T03:00:04.871Z,99399.72
2023-03-24T03:01:03.463Z,99398.88
2023-03-24T03:01:54.433Z,99398.72
2023-03-24T03:02:33.601Z,99365.72
2023-03-24T03:03:03.051Z,99398.63
2023-03-24T03:03:34.612Z,99394.00
2023-03-24T03:04:07.058Z,99365.47
2023-03-24T03:04:33.245Z,99392.50
2023-03-24T03:05:00.958Z,99392.03
2023-03-24T03:05:27.299Z,99391.16
2023-03-24T03:05:59.730Z,99395.19
2023-03-24T03:06:25.867Z,99385.09
2023-03-24T03:06:52.400Z,99386.53
2023-03-24T03:07:16.782Z,99396.91
2023-03-24T03:07:41.270Z,99394.47
2023-03-24T03:08:08.307Z,99389.47
2023-03-24T03:08:33.773Z,99369.38
2023-03-24T03:08:57.823Z,99386.53
2023-03-24T03:09:24.257Z,99382.91
2023-03-24T03:09:51.890Z,99390.09
2023-03-24T03:10:18.169Z,99385.69
2023-03-24T03:10:43.481Z,99383.84
2023-03-24T03:11:11.055Z,99391.41
2023-03-24T03:11:33.994Z,99387.16
2023-03-24T03:11:58.652Z,99390.72
2023-03-24T03:12:23.367Z,99386.66
2023-03-24T03:12:51.429Z,99381.28
2023-03-24T03:13:20.536Z,99387.16
2023-03-24T03:13:48.796Z,99386.91
2023-03-24T03:14:14.477Z,99392.88
2023-03-24T03:14:42.517Z,99378.66
2023-03-24T03:15:09.848Z,99386.53
2023-03-24T03:15:37.221Z,99379.47
2023-03-24T03:16:08.749Z,99378.97
2023-03-24T03:16:38.428Z,99385.34
2023-03-24T03:17:05.353Z,99390.19
2023-03-24T03:17:33.267Z,99384.94
2023-03-24T03:18:02.782Z,99365.53
2023-03-24T03:18:30.341Z,99387.72
2023-03-24T03:18:57.131Z,99364.94
2023-03-24T03:19:22.347Z,99384.31
2023-03-24T03:19:50.208Z,99385.19
2023-03-24T03:20:16.526Z,99387.63
2023-03-24T03:20:42.897Z,99386.66
2023-03-24T03:21:10.957Z,99384.94
2023-03-24T03:21:39.270Z,99381.75
2023-03-24T03:22:06.438Z,99385.41
2023-03-24T03:22:35.635Z,99376.50
2023-03-24T03:23:02.496Z,99382.50
2023-03-24T03:23:29.159Z,99388.09
2023-03-24T03:23:56.444Z,99393.94
2023-03-24T03:24:26.473Z,99384.06
2023-03-24T03:24:53.059Z,99378.09
2023-03-24T03:25:20.971Z,99370.81
2023-03-24T03:25:50.359Z,99386.88
2023-03-24T03:26:16.429Z,99378.47
2023-03-24T03:26:38.619Z,99387.38
2023-03-24T03:27:05.838Z,99386.25
2023-03-24T03:27:32.312Z,99376.38
2023-03-24T03:27:58.584Z,99372.34
2023-03-24T03:28:23.725Z,99371.72
2023-03-24T03:28:51.877Z,99384.44
2023-03-24T03:29:18.554Z,99381.59
2023-03-24T03:29:44.589Z,99369.56
2023-03-24T03:30:13.468Z,99377.97
2023-03-24T03:30:38.812Z,99380.41
2023-03-24T03:31:06.344Z,99372.38
2023-03-24T03:31:32.507Z,99368.47
2023-03-24T03:32:00.938Z,99381.25
2023-03-24T03:32:28.075Z,99377.50
2023-03-24T03:32:55.287Z,99374.06
2023-03-24T03:33:25.011Z,99379.91
2023-03-24T03:33:53.010Z,99377.84
2023-03-24T03:34:21.887Z,99370.28
2023-03-24T03:34:49.028Z,99336.78
2023-03-24T03:35:15.011Z,99368.59
2023-03-24T03:35:44.380Z,99378.97
2023-03-24T03:36:12.121Z,99378.97
2023-03-24T03:36:39.600Z,99373.94
2023-03-24T03:37:07.316Z,99368.41
2023-03-24T03:37:37.704Z,99357.25
2023-03-24T03:38:10.120Z,99372.41
2023-03-24T03:38:39.753Z,99371.06
2023-03-24T03:39:10.349Z,99369.09
2023-03-24T03:39:36.982Z,99383.84
2023-03-24T03:40:09.675Z,99369.47
2023-03-24T03:40:39.146Z,99370.31
2023-03-24T03:41:08.747Z,99356.75
2023-03-24T03:41:31.905Z,99374.69
2023-03-24T03:41:54.102Z,99376.41
2023-03-24T03:42:17.028Z,99357.03
2023-03-24T03:42:39.457Z,99365.31
2023-03-24T03:43:04.369Z,99365.66
2023-03-24T03:43:27.854Z,99361.53
2023-03-24T03:43:51.372Z,99372.13
2023-03-24T03:44:13.564Z,99365.41
2023-03-24T03:44:35.554Z,99367.47
2023-03-24T03:44:57.474Z,99361.75
2023-03-24T03:45:19.852Z,99362.25
2023-03-24T03:45:43.092Z,99365.56
2023-03-24T03:46:06.381Z,99367.97
2023-03-24T03:46:31.417Z,99361.53
2023-03-24T03:46:53.477Z,99362.63
2023-03-24T03:47:24.812Z,99364.44
2023-03-24T03:47:48.378Z,99362.50
2023-03-24T03:48:10.878Z,99365.19
2023-03-24T03:48:33.949Z,99362.63
2023-03-24T03:48:56.761Z,99364.44
2023-03-24T03:49:18.938Z,99361.66
2023-03-24T03:49:42.168Z,99358.88
2023-03-24T03:50:05.804Z,99362.50
2023-03-24T03:50:28.739Z,99361.53
2023-03-24T03:51:06.364Z,99369.31
2023-03-24T03:51:35.576Z,99330.81
2023-03-24T03:51:57.730Z,99361.78
2023-03-24T03:52:20.792Z,99359.81
2023-03-24T03:52:44.792Z,99360.06
2023-03-24T03:53:07.428Z,99353.63
2023-03-24T03:53:36.960Z,99358.38
2023-03-24T03:54:02.267Z,99354.34
2023-03-24T03:54:28.784Z,99360.06
2023-03-24T03:54:51.688Z,99365.81
2023-03-24T03:55:14.832Z,99362.66
2023-03-24T03:55:38.209Z,99352.38
2023-03-24T03:56:01.313Z,99364.34
2023-03-24T03:56:27.929Z,99370.94
2023-03-24T03:57:01.728Z,99372.28
2023-03-24T03:57:35.556Z,99375.06
2023-03-24T03:58:04.496Z,99369.81
2023-03-24T03:58:32.711Z,99377.50
2023-03-24T03:58:55.690Z,99370.28
2023-03-24T03:59:26.166Z,99369.31
2023-03-24T03:59:48.131Z,99368.25
2023-03-24T04:00:16.512Z,99375.16
2023-03-24T04:00:50.985Z,99378.72
2023-03-24T04:01:37.037Z,99372.97
2023-03-24T04:02:34.026Z,99375.81
2023-03-24T04:03:18.425Z,99378.38
2023-03-24T04:04:09.493Z,99382.41
2023-03-24T04:05:21.363Z,99368.41
2023-03-24T04:06:01.748Z,99381.66
2023-03-24T04:06:36.104Z,99376.63
2023-03-24T04:07:13.536Z,99369.69
2023-03-24T04:07:58.091Z,99379.31
2023-03-24T04:08:49.590Z,99370.81
2023-03-24T04:09:32.654Z,99360.84
2023-03-24T04:10:05.774Z,99378.50
2023-03-24T04:10:35.340Z,99383.50
2023-03-24T04:11:37.472Z,99383.38
2023-03-24T04:12:27.995Z,99370.69
2023-03-24T04:13:28.027Z,99374.59
2023-03-24T04:14:26.209Z,99384.13
2023-03-24T04:15:21.967Z,99369.59
2023-03-24T04:16:05.009Z,99370.31
2023-03-24T04:17:01.519Z,99373.94
2023-03-24T04:17:46.063Z,99382.41
2023-03-24T04:18:35.646Z,99376.44
2023-03-24T04:19:15.970Z,99381.31
2023-03-24T04:19:55.742Z,99378.00
2023-03-24T04:20:22.673Z,99366.31
2023-03-24T04:20:49.915Z,99378.66
2023-03-24T04:21:33.778Z,99377.41
2023-03-24T04:22:13.005Z,99375.34
2023-03-24T04:22:47.460Z,99356.53
2023-03-24T04:23:26.419Z,99387.03
2023-03-24T04:24:00.141Z,99382.16
2023-03-24T04:24:34.757Z,99387.19
2023-03-24T04:25:04.165Z,99385.56
2023-03-24T04:25:36.218Z,99388.00
2023-03-24T04:26:10.304Z,99386.66
2023-03-24T04:26:42.230Z,99387.03
2023-03-24T04:27:11.222Z,99392.78
2023-03-24T04:27:41.562Z,99383.97
2023-03-24T04:28:14.383Z,99385.91
2023-03-24T04:28:47.925Z,99382.53
2023-03-24T04:29:18.536Z,99389.09
2023-03-24T04:29:53.014Z,99383.97
2023-03-24T04:30:23.762Z,99393.25
2023-03-24T04:30:51.387Z,99399.22
2023-03-24T04:31:23.507Z,99393.13
2023-03-24T04:31:51.461Z,99404.22
2023-03-24T04:32:21.006Z,99396.78
2023-03-24T04:32:48.875Z,99398.47
2023-03-24T04:33:22.403Z,99405.44
2023-03-24T04:33:51.901Z,99404.69
2023-03-24T04:34:20.674Z,99405.06
2023-03-24T04:34:50.685Z,99397.75
2023-03-24T04:35:36.628Z,99401.41
2023-03-24T04:36:17.946Z,99406.44
2023-03-24T04:37:05.376Z,99388.84
2023-03-24T04:37:38.189Z,99394.84
2023-03-24T04:38:11.944Z,99390.81
2023-03-24T04:38:38.204Z,99406.91
2023-03-24T04:39:18.260Z,99405.69
2023-03-24T04:39:49.623Z,99407.63
2023-03-24T04:40:16.424Z,99418.25
2023-03-24T04:40:42.357Z,99416.63
2023-03-24T04:41:06.866Z,99411.00
2023-03-24T04:41:31.928Z,99409.28
2023-03-24T04:42:10.118Z,99413.56
2023-03-24T04:42:37.185Z,99414.31
2023-03-24T04:43:04.062Z,99413.97
2023-03-24T04:43:29.140Z,99405.94
2023-03-24T04:43:53.256Z,99414.84
2023-03-24T04:44:17.564Z,99411.88
2023-03-24T04:44:57.640Z,99402.59
2023-03-24T04:45:36.407Z,99412.28
2023-03-24T04:46:03.926Z,99416.66
2023-03-24T04:46:44.675Z,99419.84
2023-03-24T04:47:12.411Z,99418.53
2023-03-24T04:47:46.455Z,99414.66
2023-03-24T04:48:22.499Z,99417.56
2023-03-24T04:49:03.893Z,99422.28
2023-03-24T04:49:30.808Z,99409.88
2023-03-24T04:50:00.888Z,99428.31
2023-03-24T04:50:30.771Z,99427.56
2023-03-24T04:50:57.360Z,99440.34
2023-03-24T04:51:21.295Z,99435.84
2023-03-24T04:51:51.776Z,99452.69
2023-03-24T04:52:18.266Z,99451.81
2023-03-24T04:52:41.190Z,99461.69
2023-03-24T04:53:04.307Z,99464.97
2023-03-24T04:53:27.067Z,99464.97
2023-03-24T04:53:50.328Z,99462.09
2023-03-24T04:54:12.171Z,99476.09
2023-03-24T04:54:39.005Z,99466.38
2023-03-24T04:55:03.141Z,99442.59
2023-03-24T04:55:50.040Z,99447.16
2023-03-24T04:56:30.298Z,99451.84
2023-03-24T04:57:02.931Z,99452.34
2023-03-24T04:57:27.995Z,99466.00
2023-03-24T04:58:00.716Z,99460.50
2023-03-24T04:58:23.530Z,99464.25
2023-03-24T04:58:45.190Z,99454.22
2023-03-24T04:59:08.283Z,99466.25
2023-03-24T04:59:34.487Z,99458.00
2023-03-24T04:59:59.290Z,99475.91
2023-03-24T05:00:21.912Z,99474.47
2023-03-24T05:00:45.060Z,99472.97
2023-03-24T05:01:09.247Z,99473.63
2023-03-24T05:01:39.474Z,99474.34
2023-03-24T05:02:21.955Z,99472.97
2023-03-24T05:02:54.313Z,99479.19
2023-03-24T05:03:21.057Z,99473.22
2023-03-24T05:03:45.880Z,99473.47
2023-03-24T05:04:09.675Z,99463.41
2023-03-24T05:04:31.634Z,99452.03
2023-03-24T05:05:00.410Z,99469.38
2023-03-24T05:05:30.196Z,99465.75
2023-03-24T05:05:53.980Z,99461.69
2023-03-24T05:06:17.452Z,99472.69
2023-03-24T05:06:41.502Z,99472.34
2023-03-24T05:07:03.831Z,99455.56
2023-03-24T05:07:27.116Z,99474.19
2023-03-24T05:07:54.742Z,99480.16
2023-03-24T05:08:18.866Z,99487.03
2023-03-24T05:08:41.347Z,99475.28
2023-03-24T05:09:04.823Z,99473.25
2023-03-24T05:09:27.057Z,99471.53
2023-03-24T05:09:50.463Z,99476.88
2023-03-24T05:10:12.135Z,99473.13
2023-03-24T05:10:46.483Z,99450.88
2023-03-24T05:11:08.371Z,99444.16
2023-03-24T05:11:31.497Z,99479.22
2023-03-24T05:12:01.413Z,99473.13
2023-03-24T05:12:26.798Z,99482.13
2023-03-24T05:13:15.267Z,99475.91
2023-03-24T05:13:48.132Z,99482.88
2023-03-24T05:14:10.226Z,99483.31
2023-03-24T05:14:32.060Z,99466.59
2023-03-24T05:14:55.503Z,99478.50
2023-03-24T05:15:17.736Z,99486.28
2023-03-24T05:15:42.710Z,99471.19
2023-03-24T05:16:28.021Z,99483.91
2023-03-24T05:16:53.862Z,99490.75
2023-03-24T05:17:17.701Z,99489.28
2023-03-24T05:17:39.652Z,99485.31
2023-03-24T05:18:01.815Z,99481.47
2023-03-24T05:18:23.591Z,99492.69
2023-03-24T05:18:50.938Z,99494.28
2023-03-24T05:19:13.061Z,99496.09
2023-03-24T05:19:36.399Z,99504.78
2023-03-24T05:19:58.333Z,99501.13
2023-03-24T05:20:21.584Z,99490.00
2023-03-24T05:20:46.413Z,99491.72
2023-03-24T05:21:13.518Z,99499.84
2023-03-24T05:21:36.945Z,99501.16
2023-03-24T05:22:01.081Z,99508.84
2023-03-24T05:22:28.772Z,99497.81
2023-03-24T05:22:52.274Z,99505.09
2023-03-24T05:23:15.019Z,99507.56
2023-03-24T05:23:39.563Z,99506.34
2023-03-24T05:24:02.415Z,99509.16
2023-03-24T05:24:24.158Z,99509.38
2023-03-24T05:24:47.506Z,99514.72
2023-03-24T05:25:10.836Z,99488.84
2023-03-24T05:25:33.085Z,99511.84
2023-03-24T05:25:56.202Z,99504.78
2023-03-24T05:26:20.473Z,99510.84
2023-03-24T05:27:14.647Z,99523.84
2023-03-24T05:27:36.610Z,99523.50
2023-03-24T05:28:11.349Z,99527.66
2023-03-24T05:28:33.478Z,99524.13
2023-03-24T05:28:55.176Z,99534.84
2023-03-24T05:29:16.952Z,99532.91
2023-03-24T05:29:40.824Z,99538.13
2023-03-24T05:30:05.350Z,99532.78